Time;durP1;ratioP1;P1;durP2;ratioP2;P2;SDS_P1;SDS_P2;PMS_P1;PMS_P2;Temp;Humidity;BMP_temperature;BMP_pressure;BME280_temperature;BME280_humidity;BME280_pressure;Samples;Min_cycle;Max_cycle;Signal;HPM_P1;HPM_P2
2022/10/07 00:01:27;;;;;;;5.60;3.20;;;;;;;;;;4990930;28;20635;-81
2022/10/07 00:03:52;;;;;;;7.05;3.40;;;;;;;;;;4968893;28;20098;-81
2022/10/07 00:06:20;;;;;;;6.65;3.30;;;;;;;;;;4975971;28;20133;-81
2022/10/07 00:08:47;;;;;;;6.38;3.22;;;;;;;;;;4977888;28;20765;-80
2022/10/07 00:11:15;;;;;;;8.30;3.95;;;;;;;;;;4962443;28;20434;-80
2022/10/07 00:13:42;;;;;;;6.40;3.22;;;;;;;;;;4974576;28;20140;-81
2022/10/07 00:16:12;;;;;;;7.35;3.80;;;;;;;;;;4974255;28;20049;-81
2022/10/07 00:18:39;;;;;;;5.53;3.20;;;;;;;;;;4984224;28;20038;-80
2022/10/07 00:21:07;;;;;;;4.97;2.95;;;;;;;;;;4967068;28;20650;-81
2022/10/07 00:23:33;;;;;;;9.50;3.45;;;;;;;;;;4979358;28;20043;-81
2022/10/07 00:26:03;;;;;;;7.63;3.45;;;;;;;;;;4965061;28;20038;-80
2022/10/07 00:28:29;;;;;;;8.20;3.60;;;;;;;;;;4961941;28;20525;-81
2022/10/07 00:30:59;;;;;;;6.32;3.00;;;;;;;;;;4966040;28;20047;-81
2022/10/07 00:33:24;;;;;;;7.63;2.95;;;;;;;;;;4975826;28;20498;-81
2022/10/07 00:35:51;;;;;;;5.40;3.00;;;;;;;;;;4974091;28;20101;-81
2022/10/07 00:38:17;;;;;;;5.63;3.30;;;;;;;;;;4975142;28;20049;-80
2022/10/07 00:40:42;;;;;;;5.63;3.00;;;;;;;;;;4962000;28;20485;-81
2022/10/07 00:43:25;;;;;;;6.15;3.13;;;;;;;;;;4965154;28;20046;-81
2022/10/07 00:46:05;;;;;;;5.97;2.70;;;;;;;;;;4987965;28;20035;-81
2022/10/07 00:48:31;;;;;;;5.30;3.00;;;;;;;;;;4972325;28;20049;-81
2022/10/07 00:50:58;;;;;;;5.50;3.17;;;;;;;;;;4960090;28;20114;-81
2022/10/07 00:53:25;;;;;;;5.22;2.85;;;;;;;;;;4957711;28;20038;-81
2022/10/07 00:55:50;;;;;;;6.10;2.97;;;;;;;;;;4973348;28;20117;-81
2022/10/07 00:58:18;;;;;;;5.95;2.60;;;;;;;;;;4971881;28;20510;-80
2022/10/07 01:00:43;;;;;;;8.50;2.95;;;;;;;;;;4971162;28;20034;-81
2022/10/07 01:03:09;;;;;;;5.75;2.60;;;;;;;;;;4945296;28;20505;-81
2022/10/07 01:05:34;;;;;;;8.57;2.80;;;;;;;;;;4938625;28;20162;-81
2022/10/07 01:08:02;;;;;;;7.03;3.03;;;;;;;;;;4953424;28;20134;-80
2022/10/07 01:10:37;;;;;;;6.18;2.85;;;;;;;;;;4954082;28;20051;-80
2022/10/07 01:13:31;;;;;;;5.43;2.78;;;;;;;;;;4955736;28;20090;-80
2022/10/07 01:16:04;;;;;;;7.68;3.25;;;;;;;;;;4975173;28;20151;-80
2022/10/07 01:18:39;;;;;;;5.60;2.80;;;;;;;;;;4974224;28;20134;-81
2022/10/07 01:21:27;;;;;;;5.82;2.85;;;;;;;;;;4982390;28;20043;-81
2022/10/07 01:24:04;;;;;;;5.20;3.10;;;;;;;;;;4987594;28;20047;-80
2022/10/07 01:26:38;;;;;;;5.97;2.80;;;;;;;;;;4972751;28;20097;-80
2022/10/07 01:29:10;;;;;;;6.45;3.17;;;;;;;;;;4975212;28;20043;-80
2022/10/07 01:31:40;;;;;;;5.65;2.63;;;;;;;;;;4966349;28;21040;-80
2022/10/07 01:34:06;;;;;;;5.88;2.92;;;;;;;;;;4956586;28;20037;-80
2022/10/07 01:36:32;;;;;;;5.38;3.03;;;;;;;;;;4957355;28;20089;-79
2022/10/07 01:39:02;;;;;;;5.47;2.70;;;;;;;;;;4965029;28;20052;-80
2022/10/07 01:41:28;;;;;;;10.27;3.45;;;;;;;;;;4975258;28;20113;-79
2022/10/07 01:43:54;;;;;;;5.57;2.85;;;;;;;;;;4970638;28;20035;-80
2022/10/07 01:46:22;;;;;;;5.45;3.15;;;;;;;;;;4962848;28;20042;-81
2022/10/07 01:48:47;;;;;;;;;;;;;;;;;;4973242;28;20038;-80
2022/10/07 01:51:14;;;;;;;5.37;3.00;;;;;;;;;;4989494;28;20411;-80
2022/10/07 01:53:55;;;;;;;5.85;3.08;;;;;;;;;;4960173;28;20508;-80
2022/10/07 01:56:29;;;;;;;5.13;3.17;;;;;;;;;;4973612;28;20474;-81
2022/10/07 01:59:07;;;;;;;6.68;3.00;;;;;;;;;;4973694;28;20035;-81
2022/10/07 02:02:02;;;;;;;5.40;2.90;;;;;;;;;;4972226;28;20054;-81
2022/10/07 02:04:40;;;;;;;6.13;2.90;;;;;;;;;;4971506;28;20133;-81
2022/10/07 02:07:20;;;;;;;7.25;3.00;;;;;;;;;;4971995;28;20046;-81
2022/10/07 02:09:57;;;;;;;5.93;2.85;;;;;;;;;;4971963;28;20066;-79
2022/10/07 02:12:26;;;;;;;5.22;3.05;;;;;;;;;;4978510;28;20568;-79
2022/10/07 02:15:02;;;;;;;5.15;2.95;;;;;;;;;;4972245;28;20035;-81
2022/10/07 02:17:30;;;;;;;7.05;3.55;;;;;;;;;;4954602;28;20565;-80
2022/10/07 02:19:56;;;;;;;7.63;3.63;;;;;;;;;;4958945;28;20556;-80
2022/10/07 02:22:25;;;;;;;7.40;3.60;;;;;;;;;;4971998;28;20035;-81
2022/10/07 02:24:53;;;;;;;4.60;3.13;;;;;;;;;;4975719;28;20100;-81
2022/10/07 02:27:23;;;;;;;6.03;3.20;;;;;;;;;;4976117;28;20390;-80
2022/10/07 02:29:52;;;;;;;5.40;2.97;;;;;;;;;;4990174;28;20597;-81
2022/10/07 02:32:20;;;;;;;6.80;3.53;;;;;;;;;;4976028;28;20160;-80
2022/10/07 02:34:48;;;;;;;5.97;3.40;;;;;;;;;;4972202;28;20133;-80
2022/10/07 02:37:25;;;;;;;7.32;3.60;;;;;;;;;;4959416;28;20054;-81
2022/10/07 02:39:53;;;;;;;7.40;3.65;;;;;;;;;;4964703;28;20030;-81
2022/10/07 02:42:23;;;;;;;;;;;;;;;;;;4963143;28;20110;-80
2022/10/07 02:44:51;;;;;;;6.65;3.30;;;;;;;;;;4987063;28;20285;-80
2022/10/07 02:47:22;;;;;;;7.60;3.78;;;;;;;;;;4972974;28;20034;-80
2022/10/07 02:49:51;;;;;;;5.63;3.50;;;;;;;;;;4972537;28;20146;-80
2022/10/07 02:52:19;;;;;;;5.85;3.40;;;;;;;;;;4972265;28;20041;-81
2022/10/07 02:54:59;;;;;;;6.47;3.13;;;;;;;;;;4961222;28;20118;-81
2022/10/07 02:57:27;;;;;;;5.35;3.10;;;;;;;;;;4962449;28;20089;-80
2022/10/07 02:59:53;;;;;;;6.00;3.17;;;;;;;;;;4973084;28;20042;-81
2022/10/07 03:02:31;;;;;;;7.53;3.33;;;;;;;;;;4959521;28;20030;-81
2022/10/07 03:04:57;;;;;;;6.15;3.28;;;;;;;;;;4971096;28;20073;-81
2022/10/07 03:07:23;;;;;;;7.03;3.22;;;;;;;;;;4962026;28;20071;-80
2022/10/07 03:09:49;;;;;;;5.65;3.13;;;;;;;;;;4971230;28;20094;-81
2022/10/07 03:12:14;;;;;;;7.13;3.65;;;;;;;;;;4967677;28;20038;-81
2022/10/07 03:14:43;;;;;;;6.00;3.10;;;;;;;;;;4968459;28;20042;-81
2022/10/07 03:17:09;;;;;;;5.82;3.22;;;;;;;;;;4977761;28;20457;-80
2022/10/07 03:19:34;;;;;;;7.00;3.50;;;;;;;;;;4960856;28;20046;-81
2022/10/07 03:21:59;;;;;;;7.53;3.28;;;;;;;;;;4983906;28;20046;-81
2022/10/07 03:24:25;;;;;;;5.18;3.13;;;;;;;;;;4966259;28;20101;-80
2022/10/07 03:26:50;;;;;;;5.40;3.00;;;;;;;;;;4961905;28;20332;-81
2022/10/07 03:29:16;;;;;;;5.82;3.05;;;;;;;;;;4968226;28;20434;-80
2022/10/07 03:31:41;;;;;;;8.13;3.60;;;;;;;;;;4974568;28;20046;-81
2022/10/07 03:34:08;;;;;;;7.03;3.08;;;;;;;;;;4975395;28;20034;-80
2022/10/07 03:36:34;;;;;;;7.05;3.17;;;;;;;;;;4963460;28;20129;-81
2022/10/07 03:38:59;;;;;;;7.20;3.40;;;;;;;;;;4975737;28;20137;-81
2022/10/07 03:41:25;;;;;;;6.28;3.38;;;;;;;;;;4989828;28;20042;-80
2022/10/07 03:43:50;;;;;;;6.28;2.80;;;;;;;;;;4977447;28;20047;-80
2022/10/07 03:46:16;;;;;;;7.07;3.15;;;;;;;;;;4967341;28;20041;-81
2022/10/07 03:48:41;;;;;;;6.30;3.53;;;;;;;;;;4975439;28;20041;-80
2022/10/07 03:51:07;;;;;;;8.57;3.22;;;;;;;;;;4975038;28;20065;-81
2022/10/07 03:53:32;;;;;;;6.15;2.80;;;;;;;;;;4976494;28;20046;-81
2022/10/07 03:56:00;;;;;;;5.72;3.15;;;;;;;;;;4968426;28;20045;-81
2022/10/07 03:58:26;;;;;;;6.43;3.15;;;;;;;;;;4974706;28;20034;-81
2022/10/07 04:00:51;;;;;;;7.20;2.92;;;;;;;;;;4976629;28;20042;-81
2022/10/07 04:03:17;;;;;;;6.07;3.10;;;;;;;;;;4977897;28;20219;-80
2022/10/07 04:05:44;;;;;;;6.43;3.17;;;;;;;;;;4968689;28;20042;-80
2022/10/07 04:08:10;;;;;;;4.82;2.95;;;;;;;;;;4970744;28;20034;-80
2022/10/07 04:10:36;;;;;;;6.80;3.70;;;;;;;;;;4971214;28;20043;-80
2022/10/07 04:13:01;;;;;;;4.55;2.83;;;;;;;;;;4968519;28;20378;-80
2022/10/07 04:15:27;;;;;;;6.72;3.03;;;;;;;;;;4967044;28;20041;-80
2022/10/07 04:17:58;;;;;;;6.32;2.75;;;;;;;;;;4975582;28;20047;-80
2022/10/07 04:20:24;;;;;;;6.50;3.45;;;;;;;;;;4967571;28;20045;-80
2022/10/07 04:22:50;;;;;;;7.30;3.38;;;;;;;;;;4969556;28;20026;-80
2022/10/07 04:25:34;;;;;;;6.45;3.10;;;;;;;;;;4962295;28;20555;-80
2022/10/07 04:28:07;;;;;;;6.45;2.90;;;;;;;;;;4970532;28;20183;-80
2022/10/07 04:30:38;;;;;;;5.55;2.80;;;;;;;;;;4943498;28;20055;-80
2022/10/07 04:33:04;;;;;;;5.97;2.90;;;;;;;;;;4939984;28;20043;-81
2022/10/07 04:35:30;;;;;;;8.07;3.10;;;;;;;;;;4948577;28;20039;-80
2022/10/07 04:37:56;;;;;;;7.35;3.67;;;;;;;;;;4937266;28;20046;-80
2022/10/07 04:40:22;;;;;;;5.25;3.00;;;;;;;;;;4946676;28;20152;-81
2022/10/07 04:45:35;;;;;;;5.90;3.03;;;;;;;;;;4954063;28;20731;-80
2022/10/07 04:48:04;;;;;;;5.10;2.78;;;;;;;;;;4946431;28;20035;-80
2022/10/07 04:50:31;;;;;;;6.88;3.47;;;;;;;;;;4948797;28;20093;-81
2022/10/07 04:52:56;;;;;;;6.28;3.13;;;;;;;;;;4946071;28;20047;-81
2022/10/07 04:55:21;;;;;;;8.00;3.53;;;;;;;;;;4947168;28;20043;-81
2022/10/07 04:57:48;;;;;;;5.88;3.15;;;;;;;;;;4950223;28;20385;-81
2022/10/07 05:00:13;;;;;;;6.55;3.10;;;;;;;;;;4947977;28;20042;-81
2022/10/07 05:02:39;;;;;;;5.22;3.13;;;;;;;;;;4973060;28;20035;-81
2022/10/07 05:05:05;;;;;;;6.60;3.20;;;;;;;;;;4967394;28;20485;-81
2022/10/07 05:07:31;;;;;;;8.60;3.67;;;;;;;;;;4955822;28;20078;-81
2022/10/07 05:09:56;;;;;;;6.28;3.17;;;;;;;;;;4965912;28;20039;-81
2022/10/07 05:12:24;;;;;;;8.02;3.22;;;;;;;;;;4974780;28;20406;-83
2022/10/07 05:14:50;;;;;;;;;;;;;;;;;;4967850;28;20087;-84
2022/10/07 05:17:15;;;;;;;6.47;3.30;;;;;;;;;;4983279;28;19924;-84
2022/10/07 05:19:40;;;;;;;6.45;3.13;;;;;;;;;;4962035;28;20594;-83
2022/10/07 05:22:06;;;;;;;9.60;3.25;;;;;;;;;;4954180;28;20105;-83
2022/10/07 05:24:31;;;;;;;5.32;2.70;;;;;;;;;;4938846;28;20469;-83
2022/10/07 05:26:56;;;;;;;5.18;3.08;;;;;;;;;;4949022;28;20480;-83
2022/10/07 05:29:22;;;;;;;7.28;3.72;;;;;;;;;;4950269;28;20478;-84
2022/10/07 05:31:48;;;;;;;6.10;3.17;;;;;;;;;;4957448;28;20444;-83
2022/10/07 05:34:14;;;;;;;8.50;3.47;;;;;;;;;;4958097;28;20047;-83
2022/10/07 05:36:42;;;;;;;5.28;3.42;;;;;;;;;;4945997;28;20466;-83
2022/10/07 05:39:09;;;;;;;5.93;3.35;;;;;;;;;;4950547;28;20042;-83
2022/10/07 05:41:35;;;;;;;8.98;3.25;;;;;;;;;;4950222;28;20524;-83
2022/10/07 05:44:00;;;;;;;5.82;3.47;;;;;;;;;;4961075;28;20043;-82
2022/10/07 05:46:26;;;;;;;7.20;4.00;;;;;;;;;;4959083;28;20041;-82
2022/10/07 05:48:52;;;;;;;7.13;3.75;;;;;;;;;;4968277;28;20162;-83
2022/10/07 05:51:22;;;;;;;6.65;4.00;;;;;;;;;;4959427;28;20038;-82
2022/10/07 05:53:47;;;;;;;6.85;3.58;;;;;;;;;;4965081;28;20088;-82
2022/10/07 05:56:20;;;;;;;6.82;3.53;;;;;;;;;;4974331;28;20434;-82
2022/10/07 05:58:46;;;;;;;6.63;3.90;;;;;;;;;;4976367;28;20577;-81
2022/10/07 06:01:17;;;;;;;7.13;3.60;;;;;;;;;;4956338;28;20085;-80
2022/10/07 06:03:46;;;;;;;7.82;3.75;;;;;;;;;;4955032;28;20511;-81
2022/10/07 06:06:12;;;;;;;8.30;3.80;;;;;;;;;;4957042;28;20648;-81
2022/10/07 06:08:37;;;;;;;8.63;4.47;;;;;;;;;;4940602;28;20034;-81
2022/10/07 06:13:53;;;;;;;7.82;3.70;;;;;;;;;;4982979;28;20536;-81
2022/10/07 06:16:19;;;;;;;5.88;3.75;;;;;;;;;;4959138;28;20038;-80
2022/10/07 06:18:49;;;;;;;6.88;3.65;;;;;;;;;;4966384;28;20134;-81
2022/10/07 06:21:14;;;;;;;7.38;3.60;;;;;;;;;;4964959;28;20472;-81
2022/10/07 06:23:40;;;;;;;8.88;4.07;;;;;;;;;;4955827;28;20034;-81
2022/10/07 06:26:08;;;;;;;6.85;3.55;;;;;;;;;;4954672;28;20140;-82
2022/10/07 06:28:38;;;;;;;8.30;3.85;;;;;;;;;;4965512;28;20982;-81
2022/10/07 06:31:05;;;;;;;7.25;3.67;;;;;;;;;;4964497;28;20577;-81
2022/10/07 06:33:30;;;;;;;5.80;3.28;;;;;;;;;;4976303;28;20045;-81
2022/10/07 06:35:56;;;;;;;7.47;3.30;;;;;;;;;;4963456;28;20046;-81
2022/10/07 06:38:22;;;;;;;6.20;3.20;;;;;;;;;;4965194;28;20041;-80
2022/10/07 06:41:00;;;;;;;6.70;3.72;;;;;;;;;;4965434;28;20050;-81
2022/10/07 06:43:26;;;;;;;8.25;3.80;;;;;;;;;;4965118;28;20129;-81
2022/10/07 06:45:54;;;;;;;6.93;3.58;;;;;;;;;;4980458;28;20039;-81
2022/10/07 06:48:20;;;;;;;6.65;3.72;;;;;;;;;;4959739;28;20126;-82
2022/10/07 06:50:52;;;;;;;6.50;3.67;;;;;;;;;;4966699;28;20062;-82
2022/10/07 06:53:17;;;;;;;9.93;4.43;;;;;;;;;;4965110;28;20027;-81
2022/10/07 06:55:43;;;;;;;9.88;4.78;;;;;;;;;;4966718;28;20035;-81
2022/10/07 06:58:11;;;;;;;8.45;4.65;;;;;;;;;;4973170;28;20114;-81
2022/10/07 07:00:37;;;;;;;9.05;4.25;;;;;;;;;;4961960;28;20045;-81
2022/10/07 07:03:02;;;;;;;8.35;4.55;;;;;;;;;;4972953;28;20382;-81
2022/10/07 07:05:34;;;;;;;7.50;3.75;;;;;;;;;;4974346;28;20074;-81
2022/10/07 07:08:00;;;;;;;8.77;4.20;;;;;;;;;;4959526;28;20549;-81
2022/10/07 07:10:26;;;;;;;8.27;4.20;;;;;;;;;;4965498;28;20170;-81
2022/10/07 07:12:53;;;;;;;7.80;3.55;;;;;;;;;;4957861;28;20042;-81
2022/10/07 07:15:18;;;;;;;6.33;3.80;;;;;;;;;;4957757;28;20035;-81
2022/10/07 07:17:44;;;;;;;9.00;4.10;;;;;;;;;;4971086;28;20770;-81
2022/10/07 07:20:09;;;;;;;8.10;3.50;;;;;;;;;;4958886;28;20090;-81
2022/10/07 07:22:35;;;;;;;7.97;3.60;;;;;;;;;;4965469;28;20039;-81
2022/10/07 07:25:00;;;;;;;7.28;3.20;;;;;;;;;;4975504;28;20046;-81
2022/10/07 07:27:26;;;;;;;7.82;3.38;;;;;;;;;;4957832;28;20038;-82
2022/10/07 07:29:51;;;;;;;5.47;3.30;;;;;;;;;;4958789;28;20073;-81
2022/10/07 07:32:16;;;;;;;6.75;3.33;;;;;;;;;;4975273;28;20469;-81
2022/10/07 07:34:42;;;;;;;6.38;3.55;;;;;;;;;;4966139;28;20094;-82
2022/10/07 07:37:07;;;;;;;6.43;3.47;;;;;;;;;;4958824;28;20045;-82
2022/10/07 07:39:32;;;;;;;6.78;3.20;;;;;;;;;;4965738;28;20122;-82
2022/10/07 07:41:58;;;;;;;5.85;2.83;;;;;;;;;;4974322;28;20045;-81
2022/10/07 07:44:23;;;;;;;4.40;2.30;;;;;;;;;;4959171;28;20034;-82
2022/10/07 07:46:52;;;;;;;6.25;3.03;;;;;;;;;;4957099;28;20034;-82
2022/10/07 07:49:18;;;;;;;4.72;2.45;;;;;;;;;;4954152;28;20038;-82
2022/10/07 07:51:44;;;;;;;4.97;2.35;;;;;;;;;;4964468;28;20064;-84
2022/10/07 07:54:14;;;;;;;5.47;2.70;;;;;;;;;;4957071;28;20027;-81
2022/10/07 07:56:39;;;;;;;7.07;2.22;;;;;;;;;;4965734;28;20045;-81
2022/10/07 07:59:06;;;;;;;5.35;2.22;;;;;;;;;;4969390;28;20043;-82
2022/10/07 08:01:34;;;;;;;4.82;2.28;;;;;;;;;;4977710;28;20481;-82
2022/10/07 08:04:00;;;;;;;4.65;2.20;;;;;;;;;;4968779;28;20051;-82
2022/10/07 08:06:26;;;;;;;4.07;2.17;;;;;;;;;;4973265;28;20506;-82
2022/10/07 08:08:53;;;;;;;5.90;2.28;;;;;;;;;;4969005;28;20167;-82
2022/10/07 08:11:19;;;;;;;6.27;2.33;;;;;;;;;;4968349;28;20605;-81
2022/10/07 08:13:45;;;;;;;4.20;2.13;;;;;;;;;;4966522;28;20290;-82
2022/10/07 08:16:14;;;;;;;4.38;1.95;;;;;;;;;;4976379;28;20050;-81
2022/10/07 08:18:41;;;;;;;6.18;2.10;;;;;;;;;;4969075;28;20034;-81
2022/10/07 08:21:06;;;;;;;5.30;2.17;;;;;;;;;;4975849;28;20497;-82
2022/10/07 08:23:34;;;;;;;4.97;1.90;;;;;;;;;;4977882;28;20038;-82
2022/10/07 08:25:59;;;;;;;4.00;1.60;;;;;;;;;;4976193;28;20093;-83
2022/10/07 08:28:26;;;;;;;5.00;2.20;;;;;;;;;;4970440;28;20572;-80
2022/10/07 08:30:55;;;;;;;6.43;1.85;;;;;;;;;;4966893;28;20894;-82
2022/10/07 08:33:21;;;;;;;4.13;2.05;;;;;;;;;;4974534;28;20104;-82
2022/10/07 08:35:53;;;;;;;4.88;1.85;;;;;;;;;;4961010;28;20510;-81
2022/10/07 08:38:19;;;;;;;5.45;1.90;;;;;;;;;;4961327;28;20530;-81
2022/10/07 08:40:49;;;;;;;3.65;1.67;;;;;;;;;;4960941;28;20146;-81
2022/10/07 08:43:15;;;;;;;3.88;1.58;;;;;;;;;;4955575;28;20031;-81
2022/10/07 08:45:41;;;;;;;4.37;1.77;;;;;;;;;;4956448;28;20494;-82
2022/10/07 08:48:11;;;;;;;3.38;1.42;;;;;;;;;;4958102;28;20142;-82
2022/10/07 08:50:58;;;;;;;4.22;1.70;;;;;;;;;;4940435;28;20042;-82
2022/10/07 08:53:29;;;;;;;4.07;1.92;;;;;;;;;;4983353;28;20038;-81
2022/10/07 08:56:00;;;;;;;4.35;1.38;;;;;;;;;;4983218;28;20046;-81
2022/10/07 08:58:47;;;;;;;5.40;1.95;;;;;;;;;;4973811;28;20038;-82
2022/10/07 09:01:29;;;;;;;4.00;1.75;;;;;;;;;;4990630;28;20048;-81
2022/10/07 09:03:58;;;;;;;3.47;1.48;;;;;;;;;;4973495;28;20565;-81
2022/10/07 09:06:33;;;;;;;4.22;1.75;;;;;;;;;;4975310;28;20046;-81
2022/10/07 09:09:04;;;;;;;4.88;1.95;;;;;;;;;;4975835;28;20521;-81
2022/10/07 09:11:31;;;;;;;3.35;1.33;;;;;;;;;;4981189;28;20050;-81
2022/10/07 09:14:00;;;;;;;4.03;1.52;;;;;;;;;;4960699;28;20047;-81
2022/10/07 09:16:31;;;;;;;5.20;1.80;;;;;;;;;;4974168;28;20061;-81
2022/10/07 09:19:01;;;;;;;4.60;1.65;;;;;;;;;;4964057;28;20559;-81
2022/10/07 09:21:36;;;;;;;4.85;1.60;;;;;;;;;;4981171;28;20031;-81
2022/10/07 09:24:15;;;;;;;4.53;1.60;;;;;;;;;;4975132;28;20051;-81
2022/10/07 09:26:40;;;;;;;4.63;1.55;;;;;;;;;;4979474;28;20042;-82
2022/10/07 09:29:08;;;;;;;5.53;1.45;;;;;;;;;;4975422;28;20054;-81
2022/10/07 09:31:33;;;;;;;3.05;1.10;;;;;;;;;;4974794;28;20505;-81
2022/10/07 09:33:59;;;;;;;3.22;1.27;;;;;;;;;;4966681;28;20085;-82
2022/10/07 09:36:25;;;;;;;3.13;1.20;;;;;;;;;;4965703;28;20058;-83
2022/10/07 09:38:53;;;;;;;3.47;1.48;;;;;;;;;;4976107;28;20504;-82
2022/10/07 09:41:22;;;;;;;3.97;1.58;;;;;;;;;;4974517;28;20034;-82
2022/10/07 09:43:48;;;;;;;4.38;1.50;;;;;;;;;;4958297;28;20047;-85
2022/10/07 09:46:41;;;;;;;7.07;2.20;;;;;;;;;;4974699;28;20116;-85
2022/10/07 09:49:26;;;;;;;4.63;1.42;;;;;;;;;;4972182;28;20129;-83
2022/10/07 09:52:15;;;;;;;3.85;1.27;;;;;;;;;;4974020;28;20629;-83
2022/10/07 09:54:47;;;;;;;5.57;1.80;;;;;;;;;;4959495;28;20120;-84
2022/10/07 09:57:26;;;;;;;4.25;1.17;;;;;;;;;;4964813;28;20062;-84
2022/10/07 10:00:11;;;;;;;3.17;1.10;;;;;;;;;;4989013;28;20081;-84
2022/10/07 10:02:39;;;;;;;5.57;1.80;;;;;;;;;;4971731;28;20050;-84
2022/10/07 10:05:05;;;;;;;3.50;1.30;;;;;;;;;;4981656;28;20083;-85
2022/10/07 10:07:37;;;;;;;3.92;1.30;;;;;;;;;;4960298;28;20050;-84
2022/10/07 10:10:18;;;;;;;3.67;1.10;;;;;;;;;;4975848;28;20039;-85
2022/10/07 10:12:48;;;;;;;5.18;1.23;;;;;;;;;;4970463;28;20513;-84
2022/10/07 10:15:34;;;;;;;3.45;1.10;;;;;;;;;;4960694;28;20121;-83
2022/10/07 10:18:01;;;;;;;3.67;1.17;;;;;;;;;;4980036;28;20513;-84
2022/10/07 10:20:30;;;;;;;3.42;1.10;;;;;;;;;;4953810;28;20282;-84
2022/10/07 10:22:58;;;;;;;5.30;1.30;;;;;;;;;;4971855;28;20100;-84
2022/10/07 10:28:47;;;;;;;4.40;1.13;;;;;;;;;;4971204;28;20153;-83
2022/10/07 10:31:31;;;;;;;6.38;2.28;;;;;;;;;;4948557;28;20454;-87
2022/10/07 10:34:12;;;;;;;2.83;1.05;;;;;;;;;;4970554;28;20054;-84
2022/10/07 10:36:41;;;;;;;3.17;1.20;;;;;;;;;;4963364;28;20091;-84
2022/10/07 10:39:43;;;;;;;2.97;1.05;;;;;;;;;;4952370;28;20723;-84
2022/10/07 10:42:13;;;;;;;4.40;1.27;;;;;;;;;;4966379;28;20123;-85
2022/10/07 10:45:06;;;;;;;3.17;1.05;;;;;;;;;;4975334;28;20043;-84
2022/10/07 10:47:51;;;;;;;3.78;1.10;;;;;;;;;;4963836;28;20046;-85
2022/10/07 10:50:27;;;;;;;3.25;0.90;;;;;;;;;;4971750;28;20126;-85
2022/10/07 10:53:17;;;;;;;3.15;1.00;;;;;;;;;;4981632;28;20417;-85
2022/10/07 10:56:19;;;;;;;3.10;1.10;;;;;;;;;;4958402;28;20037;-83
2022/10/07 10:59:17;;;;;;;2.10;0.73;;;;;;;;;;4970949;28;20054;-84
2022/10/07 11:01:45;;;;;;;4.05;1.10;;;;;;;;;;4941408;28;20526;-85
2022/10/07 11:04:28;;;;;;;;;;;;;;;;;;4945085;28;20035;-86
2022/10/07 11:06:59;;;;;;;2.20;0.90;;;;;;;;;;4970455;28;19948;-85
2022/10/07 11:09:47;;;;;;;2.45;0.80;;;;;;;;;;4969982;28;20528;-84
2022/10/07 11:12:23;;;;;;;2.80;1.02;;;;;;;;;;4972916;28;20050;-85
2022/10/07 11:14:55;;;;;;;4.38;1.30;;;;;;;;;;4955585;28;20043;-85
2022/10/07 11:17:23;;;;;;;2.47;0.90;;;;;;;;;;4944911;28;20087;-85
2022/10/07 11:20:03;;;;;;;3.85;1.60;;;;;;;;;;4950854;28;20100;-86
2022/10/07 11:22:34;;;;;;;4.13;1.08;;;;;;;;;;4947986;28;20509;-84
2022/10/07 11:25:26;;;;;;;3.70;1.05;;;;;;;;;;4955300;28;20494;-86
2022/10/07 11:27:52;;;;;;;4.32;1.27;;;;;;;;;;4969731;28;20038;-86
2022/10/07 11:30:20;;;;;;;4.35;1.23;;;;;;;;;;4968180;28;20521;-83
2022/10/07 11:33:08;;;;;;;2.58;0.90;;;;;;;;;;4956631;28;20604;-84
2022/10/07 11:35:37;;;;;;;3.08;1.00;;;;;;;;;;4959643;28;20568;-84
2022/10/07 11:38:19;;;;;;;3.88;1.15;;;;;;;;;;4960565;28;20545;-85
2022/10/07 11:40:54;;;;;;;3.55;1.20;;;;;;;;;;4960581;28;20034;-84
2022/10/07 11:43:43;;;;;;;3.50;1.10;;;;;;;;;;4977666;28;20045;-84
2022/10/07 11:46:14;;;;;;;3.42;1.13;;;;;;;;;;4960242;28;20053;-84
2022/10/07 11:48:43;;;;;;;2.95;1.00;;;;;;;;;;4956493;28;20039;-85
2022/10/07 11:51:18;;;;;;;2.50;1.00;;;;;;;;;;4973432;28;20038;-84
2022/10/07 11:53:44;;;;;;;2.95;0.95;;;;;;;;;;4985671;28;20026;-85
2022/10/07 11:56:17;;;;;;;3.38;1.02;;;;;;;;;;4984249;28;20045;-83
2022/10/07 11:58:44;;;;;;;3.85;1.17;;;;;;;;;;4978534;28;20492;-82
2022/10/07 12:01:24;;;;;;;2.80;0.85;;;;;;;;;;4967562;28;20030;-83
2022/10/07 12:03:52;;;;;;;3.63;1.23;;;;;;;;;;4992970;28;20465;-84
2022/10/07 12:06:17;;;;;;;;;;;;;;;;;;4977698;28;20130;-83
2022/10/07 12:08:43;;;;;;;3.58;1.10;;;;;;;;;;4974662;28;19918;-85
2022/10/07 12:11:11;;;;;;;3.05;0.93;;;;;;;;;;4967785;28;20042;-81
2022/10/07 12:13:39;;;;;;;3.88;1.30;;;;;;;;;;4976341;28;20049;-84
2022/10/07 12:16:23;;;;;;;3.50;0.88;;;;;;;;;;4968523;28;20042;-84
2022/10/07 12:19:15;;;;;;;3.72;1.25;;;;;;;;;;4989889;28;20125;-84
2022/10/07 12:21:59;;;;;;;4.32;1.25;;;;;;;;;;4972953;28;20113;-83
2022/10/07 12:24:32;;;;;;;2.47;0.90;;;;;;;;;;4971071;28;20038;-84
2022/10/07 12:27:04;;;;;;;3.65;1.40;;;;;;;;;;4941182;28;20043;-86
2022/10/07 12:29:41;;;;;;;3.20;1.10;;;;;;;;;;4957695;28;20035;-85
2022/10/07 12:32:46;;;;;;;2.63;1.17;;;;;;;;;;4957859;28;20186;-87
2022/10/07 12:35:33;;;;;;;3.30;0.90;;;;;;;;;;4953164;28;20270;-86
2022/10/07 12:38:21;;;;;;;3.73;1.40;;;;;;;;;;4974589;28;20039;-86
2022/10/07 12:41:17;;;;;;;5.30;1.00;;;;;;;;;;4978078;28;20078;-87
2022/10/07 12:43:47;;;;;;;3.08;1.55;;;;;;;;;;4959022;28;20038;-87
2022/10/07 12:46:17;;;;;;;2.92;1.20;;;;;;;;;;4976368;28;20047;-84
2022/10/07 12:49:12;;;;;;;3.67;1.00;;;;;;;;;;4959513;28;20042;-86
2022/10/07 12:51:39;;;;;;;3.47;1.00;;;;;;;;;;4975334;28;20043;-86
2022/10/07 12:54:27;;;;;;;3.88;1.10;;;;;;;;;;4975402;28;20089;-86
2022/10/07 12:56:53;;;;;;;4.55;1.02;;;;;;;;;;4971162;28;20049;-86
2022/10/07 12:59:55;;;;;;;1.90;0.80;;;;;;;;;;4967193;28;20043;-86
2022/10/07 13:02:52;;;;;;;2.13;0.90;;;;;;;;;;4942716;28;20035;-87
2022/10/07 13:05:51;;;;;;;2.83;0.95;;;;;;;;;;4946954;28;20035;-84
2022/10/07 13:08:47;;;;;;;2.88;0.90;;;;;;;;;;4980219;28;20053;-83
2022/10/07 13:11:31;;;;;;;2.17;0.73;;;;;;;;;;4974298;28;20035;-82
2022/10/07 13:14:17;;;;;;;2.42;0.80;;;;;;;;;;4976471;28;20038;-81
2022/10/07 13:16:55;;;;;;;4.20;0.90;;;;;;;;;;4959637;28;20034;-82
2022/10/07 13:19:38;;;;;;;4.40;0.95;;;;;;;;;;4966817;28;20039;-83
2022/10/07 13:22:14;;;;;;;2.15;0.75;;;;;;;;;;4982581;28;20045;-83
2022/10/07 13:24:41;;;;;;;2.75;0.77;;;;;;;;;;4974185;28;20390;-82
2022/10/07 13:27:08;;;;;;;3.72;0.90;;;;;;;;;;4965703;28;20037;-80
2022/10/07 13:29:34;;;;;;;2.65;0.65;;;;;;;;;;4975125;28;20122;-79
2022/10/07 13:32:13;;;;;;;2.60;0.75;;;;;;;;;;4957651;28;20480;-79
2022/10/07 13:34:39;;;;;;;2.97;0.90;;;;;;;;;;4981234;28;20158;-79
2022/10/07 13:37:35;;;;;;;4.20;0.60;;;;;;;;;;4975810;28;20047;-80
2022/10/07 13:40:20;;;;;;;2.60;0.90;;;;;;;;;;4971510;28;20038;-78
2022/10/07 13:42:53;;;;;;;3.03;0.70;;;;;;;;;;4962021;28;20054;-79
2022/10/07 13:45:18;;;;;;;2.55;0.80;;;;;;;;;;4937771;28;20074;-78
2022/10/07 13:47:45;;;;;;;4.47;0.90;;;;;;;;;;4955603;28;20137;-80
2022/10/07 13:50:16;;;;;;;2.75;1.00;;;;;;;;;;4947609;28;20050;-79
2022/10/07 13:52:45;;;;;;;2.00;0.80;;;;;;;;;;4964795;28;20042;-80
2022/10/07 13:55:20;;;;;;;2.53;0.98;;;;;;;;;;4976965;28;20034;-77
2022/10/07 13:57:45;;;;;;;1.90;0.80;;;;;;;;;;4989334;28;20043;-79
2022/10/07 14:00:11;;;;;;;2.50;0.80;;;;;;;;;;4972197;28;20651;-79
2022/10/07 14:02:38;;;;;;;2.00;0.80;;;;;;;;;;4944305;28;20454;-78
2022/10/07 14:05:18;;;;;;;2.72;1.00;;;;;;;;;;4946817;28;20035;-78
2022/10/07 14:07:43;;;;;;;3.70;0.90;;;;;;;;;;4970958;28;20046;-78
2022/10/07 14:10:09;;;;;;;1.85;0.70;;;;;;;;;;4947417;28;20027;-78
2022/10/07 14:12:54;;;;;;;2.20;0.80;;;;;;;;;;4964678;28;20057;-78
2022/10/07 14:15:22;;;;;;;3.97;1.02;;;;;;;;;;4973660;28;20038;-78
2022/10/07 14:17:57;;;;;;;2.70;1.02;;;;;;;;;;4958385;28;20126;-78
2022/10/07 14:20:22;;;;;;;2.95;0.77;;;;;;;;;;4974241;28;20061;-79
2022/10/07 14:22:52;;;;;;;3.90;1.15;;;;;;;;;;4970704;28;20042;-79
2022/10/07 14:25:26;;;;;;;2.67;0.77;;;;;;;;;;4980975;28;20035;-78
2022/10/07 14:28:12;;;;;;;3.95;0.80;;;;;;;;;;4974943;28;20486;-79
2022/10/07 14:36:29;;;;;;;3.90;0.98;;;;;;;;;;4957321;28;20061;-78
2022/10/07 14:39:00;;;;;;;1.92;0.88;;;;;;;;;;4954231;28;20050;-79
2022/10/07 14:41:27;;;;;;;1.65;0.65;;;;;;;;;;4947227;28;20530;-79
2022/10/07 14:43:54;;;;;;;2.72;0.85;;;;;;;;;;4956144;28;20042;-78
2022/10/07 14:46:24;;;;;;;3.00;0.93;;;;;;;;;;4954339;28;20039;-79
2022/10/07 14:48:50;;;;;;;1.80;0.73;;;;;;;;;;4956552;28;20093;-78
2022/10/07 14:51:18;;;;;;;2.00;0.80;;;;;;;;;;4957998;28;20041;-79
2022/10/07 14:53:48;;;;;;;2.55;0.90;;;;;;;;;;4950949;28;20063;-79
2022/10/07 14:56:16;;;;;;;3.35;1.45;;;;;;;;;;4972564;28;20062;-79
2022/10/07 14:58:41;;;;;;;2.88;1.05;;;;;;;;;;4954697;28;20042;-79
2022/10/07 15:01:07;;;;;;;2.45;0.77;;;;;;;;;;4954139;28;20372;-80
2022/10/07 15:03:35;;;;;;;3.95;1.17;;;;;;;;;;4941448;28;20070;-78
2022/10/07 15:06:04;;;;;;;3.58;1.13;;;;;;;;;;4953550;28;20073;-79
2022/10/07 15:08:30;;;;;;;2.47;1.08;;;;;;;;;;4957788;28;20031;-79
2022/10/07 15:10:55;;;;;;;3.03;0.90;;;;;;;;;;4972840;28;20038;-80
2022/10/07 15:13:21;;;;;;;4.43;1.00;;;;;;;;;;4963415;28;20857;-80
2022/10/07 15:15:47;;;;;;;2.30;0.90;;;;;;;;;;4970227;28;20488;-80
2022/10/07 15:18:12;;;;;;;3.40;0.98;;;;;;;;;;4961957;28;20413;-78
2022/10/07 15:20:38;;;;;;;2.22;0.93;;;;;;;;;;4992951;28;20529;-79
2022/10/07 15:23:07;;;;;;;2.00;0.80;;;;;;;;;;4962453;28;20117;-80